sensor_id;sensor_type;location;lat;lon;timestamp;P1;durP1;ratioP1;P2;durP2;ratioP2
62037;SDS011;47991;42.974;12.082;2023-06-22T00:01:19;6.80;;;4.00;;
62037;SDS011;47991;42.974;12.082;2023-06-22T00:03:47;7.20;;;4.00;;
62037;SDS011;47991;42.974;12.082;2023-06-22T00:06:14;7.00;;;4.20;;
62037;SDS011;47991;42.974;12.082;2023-06-22T00:08:41;9.70;;;4.50;;
62037;SDS011;47991;42.974;12.082;2023-06-22T00:11:08;8.00;;;4.00;;
62037;SDS011;47991;42.974;12.082;2023-06-22T00:13:35;10.10;;;4.10;;
62037;SDS011;47991;42.974;12.082;2023-06-22T00:16:01;9.80;;;4.20;;
62037;SDS011;47991;42.974;12.082;2023-06-22T00:18:28;7.70;;;4.20;;
62037;SDS011;47991;42.974;12.082;2023-06-22T00:20:57;7.80;;;4.30;;
62037;SDS011;47991;42.974;12.082;2023-06-22T00:23:24;8.70;;;4.20;;
62037;SDS011;47991;42.974;12.082;2023-06-22T00:25:52;7.80;;;4.20;;
62037;SDS011;47991;42.974;12.082;2023-06-22T00:28:19;10.40;;;4.30;;
62037;SDS011;47991;42.974;12.082;2023-06-22T00:30:46;7.70;;;4.10;;
62037;SDS011;47991;42.974;12.082;2023-06-22T00:33:14;7.50;;;4.50;;
62037;SDS011;47991;42.974;12.082;2023-06-22T00:35:42;7.60;;;4.10;;
62037;SDS011;47991;42.974;12.082;2023-06-22T00:38:09;8.00;;;4.20;;
62037;SDS011;47991;42.974;12.082;2023-06-22T00:40:36;7.70;;;4.40;;
62037;SDS011;47991;42.974;12.082;2023-06-22T00:43:03;8.80;;;4.40;;
62037;SDS011;47991;42.974;12.082;2023-06-22T00:45:31;9.70;;;4.10;;
62037;SDS011;47991;42.974;12.082;2023-06-22T00:47:58;9.20;;;4.40;;
62037;SDS011;47991;42.974;12.082;2023-06-22T00:50:27;8.60;;;4.30;;
62037;SDS011;47991;42.974;12.082;2023-06-22T00:53:00;8.40;;;4.40;;
62037;SDS011;47991;42.974;12.082;2023-06-22T00:55:41;7.90;;;4.00;;
62037;SDS011;47991;42.974;12.082;2023-06-22T00:58:13;8.50;;;4.20;;
62037;SDS011;47991;42.974;12.082;2023-06-22T01:00:41;9.50;;;4.40;;
62037;SDS011;47991;42.974;12.082;2023-06-22T01:03:08;8.40;;;4.20;;
62037;SDS011;47991;42.974;12.082;2023-06-22T01:05:36;7.10;;;4.10;;
62037;SDS011;47991;42.974;12.082;2023-06-22T01:08:05;8.20;;;4.50;;
62037;SDS011;47991;42.974;12.082;2023-06-22T01:15:53;8.00;;;4.70;;
62037;SDS011;47991;42.974;12.082;2023-06-22T01:18:26;7.80;;;4.50;;
62037;SDS011;47991;42.974;12.082;2023-06-22T01:20:56;10.60;;;4.40;;
62037;SDS011;47991;42.974;12.082;2023-06-22T01:29:05;9.10;;;4.50;;
62037;SDS011;47991;42.974;12.082;2023-06-22T01:31:34;7.80;;;4.00;;
62037;SDS011;47991;42.974;12.082;2023-06-22T01:34:03;7.50;;;4.10;;
62037;SDS011;47991;42.974;12.082;2023-06-22T01:36:32;8.50;;;4.50;;
62037;SDS011;47991;42.974;12.082;2023-06-22T01:39:00;7.80;;;4.30;;
62037;SDS011;47991;42.974;12.082;2023-06-22T01:41:30;8.10;;;4.30;;
62037;SDS011;47991;42.974;12.082;2023-06-22T01:44:00;8.60;;;4.50;;
62037;SDS011;47991;42.974;12.082;2023-06-22T01:46:29;8.10;;;4.30;;
62037;SDS011;47991;42.974;12.082;2023-06-22T01:48:56;9.00;;;4.50;;
62037;SDS011;47991;42.974;12.082;2023-06-22T01:51:24;7.20;;;4.10;;
62037;SDS011;47991;42.974;12.082;2023-06-22T01:53:51;7.90;;;4.20;;
62037;SDS011;47991;42.974;12.082;2023-06-22T01:56:17;8.50;;;4.70;;
62037;SDS011;47991;42.974;12.082;2023-06-22T01:58:48;7.00;;;4.30;;
62037;SDS011;47991;42.974;12.082;2023-06-22T02:01:23;8.00;;;4.70;;
62037;SDS011;47991;42.974;12.082;2023-06-22T02:03:59;9.90;;;4.50;;
62037;SDS011;47991;42.974;12.082;2023-06-22T02:06:33;9.20;;;4.60;;
62037;SDS011;47991;42.974;12.082;2023-06-22T02:09:10;9.50;;;4.20;;
62037;SDS011;47991;42.974;12.082;2023-06-22T02:11:41;8.80;;;4.40;;
62037;SDS011;47991;42.974;12.082;2023-06-22T02:16:38;7.40;;;4.50;;
62037;SDS011;47991;42.974;12.082;2023-06-22T02:19:06;7.40;;;4.70;;
62037;SDS011;47991;42.974;12.082;2023-06-22T02:21:34;7.80;;;4.40;;
62037;SDS011;47991;42.974;12.082;2023-06-22T02:24:01;9.80;;;5.40;;
62037;SDS011;47991;42.974;12.082;2023-06-22T02:26:28;11.00;;;4.70;;
62037;SDS011;47991;42.974;12.082;2023-06-22T02:28:56;7.90;;;4.60;;
62037;SDS011;47991;42.974;12.082;2023-06-22T02:31:23;9.10;;;4.60;;
62037;SDS011;47991;42.974;12.082;2023-06-22T02:33:57;15.10;;;5.00;;
62037;SDS011;47991;42.974;12.082;2023-06-22T02:36:25;10.00;;;4.80;;
62037;SDS011;47991;42.974;12.082;2023-06-22T02:38:54;10.10;;;4.80;;
62037;SDS011;47991;42.974;12.082;2023-06-22T02:41:24;8.90;;;5.00;;
62037;SDS011;47991;42.974;12.082;2023-06-22T02:43:51;10.20;;;5.20;;
62037;SDS011;47991;42.974;12.082;2023-06-22T02:46:17;7.80;;;4.70;;
62037;SDS011;47991;42.974;12.082;2023-06-22T02:48:45;8.20;;;4.60;;
62037;SDS011;47991;42.974;12.082;2023-06-22T02:51:11;8.10;;;4.50;;
62037;SDS011;47991;42.974;12.082;2023-06-22T02:53:38;8.90;;;4.40;;
62037;SDS011;47991;42.974;12.082;2023-06-22T02:56:05;8.20;;;4.40;;
62037;SDS011;47991;42.974;12.082;2023-06-22T02:58:32;8.50;;;4.80;;
62037;SDS011;47991;42.974;12.082;2023-06-22T03:01:05;9.00;;;5.00;;
62037;SDS011;47991;42.974;12.082;2023-06-22T03:03:32;8.10;;;4.70;;
62037;SDS011;47991;42.974;12.082;2023-06-22T03:05:59;9.70;;;4.80;;
62037;SDS011;47991;42.974;12.082;2023-06-22T03:08:27;9.20;;;4.90;;
62037;SDS011;47991;42.974;12.082;2023-06-22T03:10:55;10.10;;;4.70;;
62037;SDS011;47991;42.974;12.082;2023-06-22T03:13:22;8.00;;;4.20;;
62037;SDS011;47991;42.974;12.082;2023-06-22T03:15:50;7.60;;;4.60;;
62037;SDS011;47991;42.974;12.082;2023-06-22T03:18:17;9.60;;;5.00;;
62037;SDS011;47991;42.974;12.082;2023-06-22T03:20:43;8.00;;;4.90;;
62037;SDS011;47991;42.974;12.082;2023-06-22T03:23:10;8.40;;;5.10;;
62037;SDS011;47991;42.974;12.082;2023-06-22T03:25:37;8.50;;;4.50;;
62037;SDS011;47991;42.974;12.082;2023-06-22T03:28:04;9.70;;;4.70;;
62037;SDS011;47991;42.974;12.082;2023-06-22T03:30:31;9.30;;;5.00;;
62037;SDS011;47991;42.974;12.082;2023-06-22T03:32:58;7.50;;;4.70;;
62037;SDS011;47991;42.974;12.082;2023-06-22T03:35:24;8.10;;;4.70;;
62037;SDS011;47991;42.974;12.082;2023-06-22T03:37:51;8.90;;;4.70;;
62037;SDS011;47991;42.974;12.082;2023-06-22T03:40:18;8.30;;;5.10;;
62037;SDS011;47991;42.974;12.082;2023-06-22T03:42:45;12.60;;;5.20;;
62037;SDS011;47991;42.974;12.082;2023-06-22T03:45:13;8.50;;;5.10;;
62037;SDS011;47991;42.974;12.082;2023-06-22T03:47:40;10.00;;;5.40;;
62037;SDS011;47991;42.974;12.082;2023-06-22T03:50:07;8.00;;;4.80;;
62037;SDS011;47991;42.974;12.082;2023-06-22T03:52:34;8.50;;;4.60;;
62037;SDS011;47991;42.974;12.082;2023-06-22T03:55:01;9.90;;;4.60;;
62037;SDS011;47991;42.974;12.082;2023-06-22T03:57:29;8.30;;;4.80;;
62037;SDS011;47991;42.974;12.082;2023-06-22T03:59:56;10.10;;;5.10;;
62037;SDS011;47991;42.974;12.082;2023-06-22T04:02:24;8.60;;;5.20;;
62037;SDS011;47991;42.974;12.082;2023-06-22T04:04:52;8.10;;;4.60;;
62037;SDS011;47991;42.974;12.082;2023-06-22T04:07:18;10.50;;;4.80;;
62037;SDS011;47991;42.974;12.082;2023-06-22T04:09:45;11.20;;;5.20;;
62037;SDS011;47991;42.974;12.082;2023-06-22T04:12:12;8.90;;;5.20;;
62037;SDS011;47991;42.974;12.082;2023-06-22T04:14:39;10.60;;;5.20;;
62037;SDS011;47991;42.974;12.082;2023-06-22T04:17:06;8.00;;;4.70;;
62037;SDS011;47991;42.974;12.082;2023-06-22T04:19:33;7.70;;;4.60;;
62037;SDS011;47991;42.974;12.082;2023-06-22T04:22:00;10.20;;;5.70;;
62037;SDS011;47991;42.974;12.082;2023-06-22T04:24:27;12.10;;;5.30;;
62037;SDS011;47991;42.974;12.082;2023-06-22T04:26:54;9.90;;;4.90;;
62037;SDS011;47991;42.974;12.082;2023-06-22T04:29:21;8.10;;;4.50;;
62037;SDS011;47991;42.974;12.082;2023-06-22T04:31:55;13.10;;;5.10;;
62037;SDS011;47991;42.974;12.082;2023-06-22T04:34:24;10.20;;;5.20;;
62037;SDS011;47991;42.974;12.082;2023-06-22T04:36:52;9.30;;;5.10;;
62037;SDS011;47991;42.974;12.082;2023-06-22T04:39:19;10.60;;;4.90;;
62037;SDS011;47991;42.974;12.082;2023-06-22T04:41:47;12.40;;;5.10;;
62037;SDS011;47991;42.974;12.082;2023-06-22T04:44:15;9.60;;;5.30;;
62037;SDS011;47991;42.974;12.082;2023-06-22T04:46:54;7.90;;;4.60;;
62037;SDS011;47991;42.974;12.082;2023-06-22T04:49:26;10.10;;;4.70;;
62037;SDS011;47991;42.974;12.082;2023-06-22T04:52:03;10.50;;;4.90;;
62037;SDS011;47991;42.974;12.082;2023-06-22T04:54:35;9.30;;;4.70;;
62037;SDS011;47991;42.974;12.082;2023-06-22T04:57:03;7.30;;;4.70;;
62037;SDS011;47991;42.974;12.082;2023-06-22T04:59:34;11.40;;;5.10;;
62037;SDS011;47991;42.974;12.082;2023-06-22T05:02:01;8.30;;;4.80;;
62037;SDS011;47991;42.974;12.082;2023-06-22T05:04:29;8.70;;;5.20;;
62037;SDS011;47991;42.974;12.082;2023-06-22T05:06:59;11.00;;;4.70;;
62037;SDS011;47991;42.974;12.082;2023-06-22T05:09:27;8.20;;;4.70;;
62037;SDS011;47991;42.974;12.082;2023-06-22T05:11:54;10.40;;;4.60;;
62037;SDS011;47991;42.974;12.082;2023-06-22T05:14:20;9.20;;;4.70;;
62037;SDS011;47991;42.974;12.082;2023-06-22T05:16:48;11.00;;;4.60;;
62037;SDS011;47991;42.974;12.082;2023-06-22T05:19:16;10.40;;;4.40;;
62037;SDS011;47991;42.974;12.082;2023-06-22T05:21:43;9.10;;;4.60;;
62037;SDS011;47991;42.974;12.082;2023-06-22T05:24:10;7.90;;;4.50;;
62037;SDS011;47991;42.974;12.082;2023-06-22T05:26:36;8.10;;;4.50;;
62037;SDS011;47991;42.974;12.082;2023-06-22T05:29:03;8.30;;;5.00;;
62037;SDS011;47991;42.974;12.082;2023-06-22T05:31:31;8.30;;;4.50;;
62037;SDS011;47991;42.974;12.082;2023-06-22T05:33:58;7.50;;;4.70;;
62037;SDS011;47991;42.974;12.082;2023-06-22T05:36:26;8.40;;;4.80;;
62037;SDS011;47991;42.974;12.082;2023-06-22T05:38:53;8.40;;;4.20;;
62037;SDS011;47991;42.974;12.082;2023-06-22T05:41:20;7.00;;;4.30;;
62037;SDS011;47991;42.974;12.082;2023-06-22T05:43:47;8.90;;;4.40;;
62037;SDS011;47991;42.974;12.082;2023-06-22T05:46:14;8.50;;;4.40;;
62037;SDS011;47991;42.974;12.082;2023-06-22T05:48:40;8.50;;;4.60;;
62037;SDS011;47991;42.974;12.082;2023-06-22T05:51:07;8.10;;;4.50;;
62037;SDS011;47991;42.974;12.082;2023-06-22T05:53:34;7.60;;;4.70;;
62037;SDS011;47991;42.974;12.082;2023-06-22T05:56:01;7.90;;;4.50;;
62037;SDS011;47991;42.974;12.082;2023-06-22T05:58:28;10.40;;;4.60;;
62037;SDS011;47991;42.974;12.082;2023-06-22T06:00:55;11.00;;;4.90;;
62037;SDS011;47991;42.974;12.082;2023-06-22T06:03:21;11.00;;;5.20;;
62037;SDS011;47991;42.974;12.082;2023-06-22T06:05:49;9.70;;;4.70;;
62037;SDS011;47991;42.974;12.082;2023-06-22T06:08:16;10.70;;;5.20;;
62037;SDS011;47991;42.974;12.082;2023-06-22T06:10:43;10.50;;;5.40;;
62037;SDS011;47991;42.974;12.082;2023-06-22T06:13:10;14.70;;;5.60;;
62037;SDS011;47991;42.974;12.082;2023-06-22T06:15:37;11.50;;;5.90;;
62037;SDS011;47991;42.974;12.082;2023-06-22T06:18:04;11.10;;;5.40;;
62037;SDS011;47991;42.974;12.082;2023-06-22T06:20:32;9.10;;;5.30;;
62037;SDS011;47991;42.974;12.082;2023-06-22T06:30:53;13.00;;;6.20;;
62037;SDS011;47991;42.974;12.082;2023-06-22T06:33:19;13.10;;;5.70;;
62037;SDS011;47991;42.974;12.082;2023-06-22T06:35:46;16.50;;;5.90;;
62037;SDS011;47991;42.974;12.082;2023-06-22T06:38:12;13.70;;;5.80;;
62037;SDS011;47991;42.974;12.082;2023-06-22T06:40:39;13.80;;;6.10;;
62037;SDS011;47991;42.974;12.082;2023-06-22T06:43:05;11.20;;;5.50;;
62037;SDS011;47991;42.974;12.082;2023-06-22T06:45:31;10.70;;;6.20;;
62037;SDS011;47991;42.974;12.082;2023-06-22T06:48:00;9.80;;;5.40;;
62037;SDS011;47991;42.974;12.082;2023-06-22T06:50:26;11.40;;;5.20;;
62037;SDS011;47991;42.974;12.082;2023-06-22T06:52:53;11.70;;;5.60;;
62037;SDS011;47991;42.974;12.082;2023-06-22T06:55:20;11.50;;;6.20;;
62037;SDS011;47991;42.974;12.082;2023-06-22T06:57:46;10.70;;;6.10;;
62037;SDS011;47991;42.974;12.082;2023-06-22T07:00:14;10.10;;;5.80;;
62037;SDS011;47991;42.974;12.082;2023-06-22T07:02:42;9.40;;;5.40;;
62037;SDS011;47991;42.974;12.082;2023-06-22T07:05:10;9.80;;;5.70;;
62037;SDS011;47991;42.974;12.082;2023-06-22T07:07:38;11.50;;;5.70;;
62037;SDS011;47991;42.974;12.082;2023-06-22T07:10:05;11.00;;;6.20;;
62037;SDS011;47991;42.974;12.082;2023-06-22T07:12:32;10.50;;;6.40;;
62037;SDS011;47991;42.974;12.082;2023-06-22T07:15:04;10.50;;;6.20;;
62037;SDS011;47991;42.974;12.082;2023-06-22T07:17:36;9.10;;;5.70;;
62037;SDS011;47991;42.974;12.082;2023-06-22T07:20:03;9.90;;;5.70;;
62037;SDS011;47991;42.974;12.082;2023-06-22T07:22:37;14.50;;;6.00;;
62037;SDS011;47991;42.974;12.082;2023-06-22T07:25:05;13.70;;;6.30;;
62037;SDS011;47991;42.974;12.082;2023-06-22T07:27:36;12.00;;;5.80;;
62037;SDS011;47991;42.974;12.082;2023-06-22T07:30:04;12.10;;;5.70;;
62037;SDS011;47991;42.974;12.082;2023-06-22T07:32:31;8.00;;;5.60;;
62037;SDS011;47991;42.974;12.082;2023-06-22T07:34:57;11.30;;;6.00;;
62037;SDS011;47991;42.974;12.082;2023-06-22T07:37:23;12.80;;;6.10;;
62037;SDS011;47991;42.974;12.082;2023-06-22T07:39:49;8.80;;;5.70;;
62037;SDS011;47991;42.974;12.082;2023-06-22T07:42:19;11.70;;;6.00;;
62037;SDS011;47991;42.974;12.082;2023-06-22T07:44:45;10.20;;;5.90;;
62037;SDS011;47991;42.974;12.082;2023-06-22T07:47:11;12.70;;;6.00;;
62037;SDS011;47991;42.974;12.082;2023-06-22T07:49:38;9.80;;;6.00;;
62037;SDS011;47991;42.974;12.082;2023-06-22T07:52:04;13.00;;;6.20;;
62037;SDS011;47991;42.974;12.082;2023-06-22T07:54:30;9.30;;;5.80;;
62037;SDS011;47991;42.974;12.082;2023-06-22T07:56:57;13.80;;;6.40;;
62037;SDS011;47991;42.974;12.082;2023-06-22T07:59:23;13.80;;;6.30;;
62037;SDS011;47991;42.974;12.082;2023-06-22T08:01:49;12.10;;;6.00;;
62037;SDS011;47991;42.974;12.082;2023-06-22T08:04:15;9.50;;;5.70;;
62037;SDS011;47991;42.974;12.082;2023-06-22T08:06:42;9.50;;;5.40;;
62037;SDS011;47991;42.974;12.082;2023-06-22T08:09:09;12.00;;;5.50;;
62037;SDS011;47991;42.974;12.082;2023-06-22T08:11:35;9.60;;;5.50;;
62037;SDS011;47991;42.974;12.082;2023-06-22T08:14:02;8.40;;;5.00;;
62037;SDS011;47991;42.974;12.082;2023-06-22T08:16:28;9.10;;;5.60;;
62037;SDS011;47991;42.974;12.082;2023-06-22T08:18:54;14.60;;;6.10;;
62037;SDS011;47991;42.974;12.082;2023-06-22T08:21:21;11.10;;;5.50;;
62037;SDS011;47991;42.974;12.082;2023-06-22T08:23:47;9.70;;;6.10;;
62037;SDS011;47991;42.974;12.082;2023-06-22T08:26:14;9.20;;;5.50;;
62037;SDS011;47991;42.974;12.082;2023-06-22T08:28:41;10.30;;;5.70;;
62037;SDS011;47991;42.974;12.082;2023-06-22T08:31:07;9.00;;;5.10;;
62037;SDS011;47991;42.974;12.082;2023-06-22T08:33:34;9.80;;;5.70;;
62037;SDS011;47991;42.974;12.082;2023-06-22T08:36:00;10.80;;;5.40;;
62037;SDS011;47991;42.974;12.082;2023-06-22T08:38:34;8.70;;;5.10;;
62037;SDS011;47991;42.974;12.082;2023-06-22T08:41:00;10.10;;;5.60;;
62037;SDS011;47991;42.974;12.082;2023-06-22T08:43:27;10.30;;;5.60;;
62037;SDS011;47991;42.974;12.082;2023-06-22T08:45:53;8.70;;;5.50;;
62037;SDS011;47991;42.974;12.082;2023-06-22T08:48:19;9.40;;;5.10;;
62037;SDS011;47991;42.974;12.082;2023-06-22T08:50:46;10.50;;;5.80;;
62037;SDS011;47991;42.974;12.082;2023-06-22T08:53:12;9.20;;;5.50;;
62037;SDS011;47991;42.974;12.082;2023-06-22T08:55:39;9.50;;;5.40;;
62037;SDS011;47991;42.974;12.082;2023-06-22T08:58:05;10.80;;;5.80;;
62037;SDS011;47991;42.974;12.082;2023-06-22T09:00:32;12.60;;;5.80;;
62037;SDS011;47991;42.974;12.082;2023-06-22T09:03:00;11.50;;;5.50;;
62037;SDS011;47991;42.974;12.082;2023-06-22T09:05:27;9.00;;;5.50;;
62037;SDS011;47991;42.974;12.082;2023-06-22T09:07:53;11.70;;;5.60;;
62037;SDS011;47991;42.974;12.082;2023-06-22T09:10:21;10.70;;;5.70;;
62037;SDS011;47991;42.974;12.082;2023-06-22T09:12:48;9.30;;;6.00;;
62037;SDS011;47991;42.974;12.082;2023-06-22T09:15:14;10.30;;;5.50;;
62037;SDS011;47991;42.974;12.082;2023-06-22T09:17:41;10.50;;;5.00;;
62037;SDS011;47991;42.974;12.082;2023-06-22T09:20:08;11.00;;;5.90;;
62037;SDS011;47991;42.974;12.082;2023-06-22T09:22:36;16.50;;;6.00;;
62037;SDS011;47991;42.974;12.082;2023-06-22T09:25:03;10.20;;;6.00;;
62037;SDS011;47991;42.974;12.082;2023-06-22T09:27:31;9.90;;;5.00;;
62037;SDS011;47991;42.974;12.082;2023-06-22T09:29:57;10.40;;;5.50;;
62037;SDS011;47991;42.974;12.082;2023-06-22T09:32:24;9.20;;;5.30;;
62037;SDS011;47991;42.974;12.082;2023-06-22T09:34:52;8.70;;;5.40;;
62037;SDS011;47991;42.974;12.082;2023-06-22T09:37:19;10.60;;;5.60;;
62037;SDS011;47991;42.974;12.082;2023-06-22T09:39:45;10.80;;;5.20;;
62037;SDS011;47991;42.974;12.082;2023-06-22T09:42:12;9.30;;;5.40;;
62037;SDS011;47991;42.974;12.082;2023-06-22T09:44:39;9.30;;;4.80;;
62037;SDS011;47991;42.974;12.082;2023-06-22T09:47:05;11.70;;;5.00;;
62037;SDS011;47991;42.974;12.082;2023-06-22T09:49:32;9.30;;;4.50;;
62037;SDS011;47991;42.974;12.082;2023-06-22T09:51:59;11.60;;;5.00;;
62037;SDS011;47991;42.974;12.082;2023-06-22T09:54:25;9.90;;;4.80;;
62037;SDS011;47991;42.974;12.082;2023-06-22T09:56:51;10.40;;;5.20;;
62037;SDS011;47991;42.974;12.082;2023-06-22T09:59:18;9.80;;;5.10;;
62037;SDS011;47991;42.974;12.082;2023-06-22T10:01:44;11.30;;;5.10;;
62037;SDS011;47991;42.974;12.082;2023-06-22T10:04:10;10.50;;;5.60;;
62037;SDS011;47991;42.974;12.082;2023-06-22T10:06:37;13.00;;;5.30;;
62037;SDS011;47991;42.974;12.082;2023-06-22T10:09:07;9.90;;;5.40;;
62037;SDS011;47991;42.974;12.082;2023-06-22T10:11:33;9.70;;;5.00;;
62037;SDS011;47991;42.974;12.082;2023-06-22T10:14:01;13.40;;;4.80;;
62037;SDS011;47991;42.974;12.082;2023-06-22T10:16:31;8.20;;;4.30;;
62037;SDS011;47991;42.974;12.082;2023-06-22T10:18:58;8.40;;;4.10;;
62037;SDS011;47991;42.974;12.082;2023-06-22T10:21:25;7.60;;;4.20;;
62037;SDS011;47991;42.974;12.082;2023-06-22T10:23:52;9.10;;;3.70;;
62037;SDS011;47991;42.974;12.082;2023-06-22T10:26:19;8.20;;;3.80;;
62037;SDS011;47991;42.974;12.082;2023-06-22T10:28:45;6.20;;;3.60;;
62037;SDS011;47991;42.974;12.082;2023-06-22T10:31:11;7.80;;;3.50;;
62037;SDS011;47991;42.974;12.082;2023-06-22T10:33:37;7.40;;;3.30;;
62037;SDS011;47991;42.974;12.082;2023-06-22T10:36:03;10.40;;;3.40;;
62037;SDS011;47991;42.974;12.082;2023-06-22T10:38:30;8.70;;;3.70;;
62037;SDS011;47991;42.974;12.082;2023-06-22T10:40:56;7.30;;;3.40;;
62037;SDS011;47991;42.974;12.082;2023-06-22T10:43:22;7.00;;;2.70;;
62037;SDS011;47991;42.974;12.082;2023-06-22T10:45:49;9.10;;;3.20;;
62037;SDS011;47991;42.974;12.082;2023-06-22T10:48:15;6.50;;;2.50;;
62037;SDS011;47991;42.974;12.082;2023-06-22T10:50:41;6.60;;;2.70;;
62037;SDS011;47991;42.974;12.082;2023-06-22T10:53:07;6.10;;;2.70;;
62037;SDS011;47991;42.974;12.082;2023-06-22T10:55:33;6.30;;;2.80;;
62037;SDS011;47991;42.974;12.082;2023-06-22T10:57:59;10.70;;;3.10;;
62037;SDS011;47991;42.974;12.082;2023-06-22T11:00:26;11.40;;;2.70;;
62037;SDS011;47991;42.974;12.082;2023-06-22T11:02:52;6.50;;;2.70;;
62037;SDS011;47991;42.974;12.082;2023-06-22T11:05:19;5.50;;;2.30;;
62037;SDS011;47991;42.974;12.082;2023-06-22T11:07:45;6.60;;;2.70;;
62037;SDS011;47991;42.974;12.082;2023-06-22T11:10:12;9.50;;;2.70;;
62037;SDS011;47991;42.974;12.082;2023-06-22T11:12:39;5.30;;;2.70;;
62037;SDS011;47991;42.974;12.082;2023-06-22T11:15:05;6.80;;;3.00;;
62037;SDS011;47991;42.974;12.082;2023-06-22T11:17:32;10.80;;;2.90;;
62037;SDS011;47991;42.974;12.082;2023-06-22T11:19:58;7.30;;;3.10;;
62037;SDS011;47991;42.974;12.082;2023-06-22T11:22:26;5.70;;;2.80;;
62037;SDS011;47991;42.974;12.082;2023-06-22T11:24:52;8.10;;;3.10;;
62037;SDS011;47991;42.974;12.082;2023-06-22T11:27:18;8.40;;;3.30;;
62037;SDS011;47991;42.974;12.082;2023-06-22T11:29:44;8.50;;;3.00;;
62037;SDS011;47991;42.974;12.082;2023-06-22T11:32:11;11.50;;;3.10;;
62037;SDS011;47991;42.974;12.082;2023-06-22T11:34:37;5.40;;;2.70;;
62037;SDS011;47991;42.974;12.082;2023-06-22T11:37:03;9.10;;;3.10;;
62037;SDS011;47991;42.974;12.082;2023-06-22T11:39:29;6.00;;;2.80;;
62037;SDS011;47991;42.974;12.082;2023-06-22T11:41:55;10.00;;;3.40;;
62037;SDS011;47991;42.974;12.082;2023-06-22T11:44:22;6.30;;;2.60;;
62037;SDS011;47991;42.974;12.082;2023-06-22T11:46:48;10.70;;;3.50;;
62037;SDS011;47991;42.974;12.082;2023-06-22T11:49:14;8.30;;;3.00;;
62037;SDS011;47991;42.974;12.082;2023-06-22T11:51:40;10.40;;;3.40;;
62037;SDS011;47991;42.974;12.082;2023-06-22T11:54:06;6.40;;;3.30;;
62037;SDS011;47991;42.974;12.082;2023-06-22T11:56:32;11.90;;;3.40;;
62037;SDS011;47991;42.974;12.082;2023-06-22T11:58:59;8.60;;;3.10;;
62037;SDS011;47991;42.974;12.082;2023-06-22T12:01:25;7.70;;;3.30;;
62037;SDS011;47991;42.974;12.082;2023-06-22T12:03:51;8.40;;;3.20;;
62037;SDS011;47991;42.974;12.082;2023-06-22T12:06:17;6.40;;;2.80;;
62037;SDS011;47991;42.974;12.082;2023-06-22T12:08:43;8.40;;;3.70;;
62037;SDS011;47991;42.974;12.082;2023-06-22T12:11:10;10.00;;;3.30;;
62037;SDS011;47991;42.974;12.082;2023-06-22T12:13:36;10.20;;;3.30;;
62037;SDS011;47991;42.974;12.082;2023-06-22T12:16:02;7.30;;;3.40;;
62037;SDS011;47991;42.974;12.082;2023-06-22T12:18:29;7.00;;;3.70;;
62037;SDS011;47991;42.974;12.082;2023-06-22T12:20:55;8.70;;;3.60;;
62037;SDS011;47991;42.974;12.082;2023-06-22T12:23:22;6.10;;;3.30;;
62037;SDS011;47991;42.974;12.082;2023-06-22T12:25:48;8.80;;;3.70;;
62037;SDS011;47991;42.974;12.082;2023-06-22T12:28:14;9.00;;;3.60;;
62037;SDS011;47991;42.974;12.082;2023-06-22T12:30:40;11.80;;;3.70;;
62037;SDS011;47991;42.974;12.082;2023-06-22T12:33:07;10.70;;;3.20;;
62037;SDS011;47991;42.974;12.082;2023-06-22T12:35:36;8.00;;;3.30;;
62037;SDS011;47991;42.974;12.082;2023-06-22T12:38:02;8.10;;;3.10;;
62037;SDS011;47991;42.974;12.082;2023-06-22T12:40:29;11.80;;;3.50;;
62037;SDS011;47991;42.974;12.082;2023-06-22T12:42:55;8.60;;;3.50;;
62037;SDS011;47991;42.974;12.082;2023-06-22T12:45:21;8.30;;;3.20;;
62037;SDS011;47991;42.974;12.082;2023-06-22T12:47:47;8.70;;;3.20;;
62037;SDS011;47991;42.974;12.082;2023-06-22T12:50:15;11.90;;;3.80;;
62037;SDS011;47991;42.974;12.082;2023-06-22T12:52:42;12.30;;;3.70;;
62037;SDS011;47991;42.974;12.082;2023-06-22T12:55:08;10.90;;;4.20;;
62037;SDS011;47991;42.974;12.082;2023-06-22T12:57:35;10.80;;;3.80;;
62037;SDS011;47991;42.974;12.082;2023-06-22T13:00:01;10.60;;;3.50;;
62037;SDS011;47991;42.974;12.082;2023-06-22T13:02:27;7.40;;;2.90;;
62037;SDS011;47991;42.974;12.082;2023-06-22T13:04:54;11.70;;;3.80;;
62037;SDS011;47991;42.974;12.082;2023-06-22T13:07:20;10.60;;;3.60;;
62037;SDS011;47991;42.974;12.082;2023-06-22T13:09:46;8.40;;;3.30;;
62037;SDS011;47991;42.974;12.082;2023-06-22T13:12:12;10.70;;;3.00;;
62037;SDS011;47991;42.974;12.082;2023-06-22T13:14:38;9.70;;;3.20;;
62037;SDS011;47991;42.974;12.082;2023-06-22T13:17:05;9.30;;;3.30;;
62037;SDS011;47991;42.974;12.082;2023-06-22T13:19:31;11.10;;;3.50;;
62037;SDS011;47991;42.974;12.082;2023-06-22T13:21:58;12.10;;;3.50;;
62037;SDS011;47991;42.974;12.082;2023-06-22T13:24:25;11.50;;;3.40;;
62037;SDS011;47991;42.974;12.082;2023-06-22T13:26:52;8.80;;;3.60;;
62037;SDS011;47991;42.974;12.082;2023-06-22T13:29:18;11.80;;;3.30;;
62037;SDS011;47991;42.974;12.082;2023-06-22T13:31:44;13.50;;;3.30;;
62037;SDS011;47991;42.974;12.082;2023-06-22T13:34:10;10.70;;;3.70;;
62037;SDS011;47991;42.974;12.082;2023-06-22T13:36:37;10.40;;;3.40;;
62037;SDS011;47991;42.974;12.082;2023-06-22T13:39:03;12.20;;;3.70;;
62037;SDS011;47991;42.974;12.082;2023-06-22T13:41:29;11.30;;;3.80;;
62037;SDS011;47991;42.974;12.082;2023-06-22T13:43:56;11.90;;;3.20;;
62037;SDS011;47991;42.974;12.082;2023-06-22T13:46:22;11.90;;;4.00;;
62037;SDS011;47991;42.974;12.082;2023-06-22T13:48:48;13.20;;;4.10;;
62037;SDS011;47991;42.974;12.082;2023-06-22T13:51:14;9.20;;;3.30;;
62037;SDS011;47991;42.974;12.082;2023-06-22T13:53:40;11.00;;;3.90;;
62037;SDS011;47991;42.974;12.082;2023-06-22T13:56:06;10.90;;;3.50;;
62037;SDS011;47991;42.974;12.082;2023-06-22T13:58:33;11.90;;;3.50;;
62037;SDS011;47991;42.974;12.082;2023-06-22T14:00:59;17.60;;;3.90;;
62037;SDS011;47991;42.974;12.082;2023-06-22T14:03:25;13.60;;;4.00;;
62037;SDS011;47991;42.974;12.082;2023-06-22T14:05:51;14.70;;;4.10;;
62037;SDS011;47991;42.974;12.082;2023-06-22T14:08:20;13.80;;;3.60;;
62037;SDS011;47991;42.974;12.082;2023-06-22T14:10:46;12.30;;;3.40;;
62037;SDS011;47991;42.974;12.082;2023-06-22T14:13:13;10.80;;;3.50;;
62037;SDS011;47991;42.974;12.082;2023-06-22T14:15:39;14.30;;;3.80;;
62037;SDS011;47991;42.974;12.082;2023-06-22T14:18:05;12.80;;;3.40;;
62037;SDS011;47991;42.974;12.082;2023-06-22T14:20:31;13.30;;;3.80;;
62037;SDS011;47991;42.974;12.082;2023-06-22T14:22:57;12.70;;;3.70;;
62037;SDS011;47991;42.974;12.082;2023-06-22T14:25:24;11.80;;;3.80;;
62037;SDS011;47991;42.974;12.082;2023-06-22T14:27:50;14.50;;;3.90;;
62037;SDS011;47991;42.974;12.082;2023-06-22T14:30:16;13.40;;;3.60;;
62037;SDS011;47991;42.974;12.082;2023-06-22T14:32:43;12.90;;;3.30;;
62037;SDS011;47991;42.974;12.082;2023-06-22T14:35:10;15.80;;;4.10;;
62037;SDS011;47991;42.974;12.082;2023-06-22T14:37:36;9.80;;;3.90;;
62037;SDS011;47991;42.974;12.082;2023-06-22T14:40:02;12.50;;;3.70;;
62037;SDS011;47991;42.974;12.082;2023-06-22T14:42:29;11.40;;;3.80;;
62037;SDS011;47991;42.974;12.082;2023-06-22T14:44:56;12.40;;;3.80;;
62037;SDS011;47991;42.974;12.082;2023-06-22T14:47:22;9.20;;;3.80;;
62037;SDS011;47991;42.974;12.082;2023-06-22T14:49:48;10.00;;;3.90;;